Time;durP1;ratioP1;P1;durP2;ratioP2;P2;SDS_P1;SDS_P2;PMS_P1;PMS_P2;Temp;Humidity;BMP_temperature;BMP_pressure;BME280_temperature;BME280_humidity;BME280_pressure;Samples;Min_cycle;Max_cycle;Signal;HPM_P1;HPM_P2
2022/06/05 03:03:34;;;;;;;3.63;2.63;;;25.40;50.10;;;;;;4906394;28;46835;-62
2022/06/05 03:06:01;;;;;;;2.80;2.60;;;25.40;50.00;;;;;;4916869;28;45294;-61
2022/06/05 03:08:27;;;;;;;2.70;2.50;;;25.40;50.00;;;;;;4915362;28;44663;-63
2022/06/05 03:10:52;;;;;;;3.20;3.00;;;25.40;50.00;;;;;;4930593;28;45615;-61
2022/06/05 03:13:18;;;;;;;3.00;2.80;;;25.40;50.00;;;;;;4919472;28;45496;-60
2022/06/05 03:15:44;;;;;;;3.17;2.88;;;25.40;49.90;;;;;;4920262;28;44970;-61
2022/06/05 03:18:12;;;;;;;3.28;2.97;;;25.40;49.90;;;;;;4902332;28;45146;-60
2022/06/05 03:20:38;;;;;;;2.88;2.67;;;25.40;49.90;;;;;;4915605;28;45677;-60
2022/06/05 03:23:09;;;;;;;3.00;2.80;;;25.40;49.90;;;;;;4925789;28;45715;-62
2022/06/05 03:25:37;;;;;;;3.25;2.67;;;25.40;49.90;;;;;;4914136;28;45121;-59
2022/06/05 03:28:03;;;;;;;2.58;2.38;;;25.40;49.90;;;;;;4900539;28;45368;-60
2022/06/05 03:30:29;;;;;;;2.63;2.42;;;25.40;49.90;;;;;;4878696;28;45392;-61
2022/06/05 03:32:55;;;;;;;2.70;2.50;;;25.40;50.00;;;;;;4899859;28;45652;-61
2022/06/05 03:35:21;;;;;;;2.75;2.40;;;25.40;49.90;;;;;;4911839;28;45174;-61
2022/06/05 03:37:46;;;;;;;2.60;2.40;;;25.40;49.90;;;;;;4917039;28;44957;-60
2022/06/05 03:40:14;;;;;;;3.85;2.47;;;25.40;49.90;;;;;;4898209;28;45242;-59
2022/06/05 03:42:40;;;;;;;2.92;2.65;;;25.40;49.90;;;;;;4900441;28;46013;-62
2022/06/05 03:45:09;;;;;;;2.80;2.60;;;25.40;49.90;;;;;;4916938;28;45141;-61
2022/06/05 03:47:35;;;;;;;2.75;2.50;;;25.40;49.90;;;;;;4911340;28;46155;-61
2022/06/05 03:50:00;;;;;;;2.67;2.42;;;25.40;49.90;;;;;;4902273;28;44910;-61
2022/06/05 03:52:26;;;;;;;2.58;2.38;;;25.40;49.90;;;;;;4915400;28;45509;-62
2022/06/05 03:54:51;;;;;;;2.80;2.60;;;25.40;49.90;;;;;;4915898;28;44826;-62
2022/06/05 03:57:17;;;;;;;3.13;2.85;;;25.40;49.80;;;;;;4928506;28;45268;-62
2022/06/05 03:59:43;;;;;;;2.40;2.25;;;25.40;49.80;;;;;;4915539;28;45463;-62
2022/06/05 04:02:09;;;;;;;2.70;2.50;;;25.40;49.80;;;;;;4912911;28;45614;-62
2022/06/05 04:04:34;;;;;;;2.95;2.72;;;25.40;49.80;;;;;;4917034;28;44962;-62
2022/06/05 04:07:00;;;;;;;3.08;2.80;;;25.40;49.80;;;;;;4917945;28;45577;-62
2022/06/05 04:09:25;;;;;;;2.70;2.50;;;25.40;49.80;;;;;;4921658;28;45279;-61
2022/06/05 04:11:51;;;;;;;2.50;2.30;;;25.40;49.80;;;;;;4917007;28;45492;-60
2022/06/05 04:14:17;;;;;;;2.67;2.47;;;25.40;49.80;;;;;;4918676;28;44716;-62
2022/06/05 04:16:42;;;;;;;2.60;2.40;;;25.40;49.80;;;;;;4923342;28;45266;-62
2022/06/05 04:19:08;;;;;;;3.38;2.58;;;25.40;49.80;;;;;;4922208;28;45262;-61
2022/06/05 04:21:35;;;;;;;2.70;2.50;;;25.40;49.80;;;;;;4904111;28;45933;-61
2022/06/05 04:24:01;;;;;;;2.72;2.53;;;25.40;49.80;;;;;;4932659;28;45404;-62
2022/06/05 04:26:28;;;;;;;2.70;2.50;;;25.40;49.80;;;;;;4890241;28;45593;-62
2022/06/05 04:28:54;;;;;;;2.70;2.45;;;25.40;49.80;;;;;;4913420;28;45434;-62
2022/06/05 04:31:24;;;;;;;2.58;2.38;;;25.40;49.80;;;;;;4880434;28;45541;-62
2022/06/05 04:33:51;;;;;;;2.40;2.20;;;25.40;49.70;;;;;;4927804;28;45766;-62
2022/06/05 04:36:17;;;;;;;2.35;2.20;;;25.40;50.40;;;;;;4912813;28;45616;-62
2022/06/05 04:38:42;;;;;;;2.13;2.03;;;25.40;49.80;;;;;;4912028;28;46287;-62
2022/06/05 04:41:08;;;;;;;2.33;2.13;;;25.40;49.90;;;;;;4914416;28;46666;-62
2022/06/05 04:43:34;;;;;;;2.47;2.28;;;25.30;49.80;;;;;;4912678;28;45520;-62
2022/06/05 04:45:59;;;;;;;1.98;1.88;;;25.30;49.70;;;;;;4929600;28;45523;-62
2022/06/05 04:48:25;;;;;;;2.92;2.63;;;25.30;49.70;;;;;;4912385;28;45634;-60
2022/06/05 04:50:50;;;;;;;3.78;2.40;;;25.40;49.80;;;;;;4897544;28;45802;-61
2022/06/05 04:53:16;;;;;;;2.78;2.38;;;25.30;49.70;;;;;;4915131;28;45447;-61
2022/06/05 04:55:42;;;;;;;2.20;2.05;;;25.40;49.80;;;;;;4896963;28;45044;-63
2022/06/05 04:58:07;;;;;;;3.75;2.83;;;25.30;49.70;;;;;;4897418;28;46491;-62
2022/06/05 05:00:33;;;;;;;2.67;2.47;;;25.40;49.80;;;;;;4913772;28;45340;-61
2022/06/05 05:02:58;;;;;;;2.70;2.50;;;25.30;49.70;;;;;;4895692;28;45358;-63
2022/06/05 05:05:24;;;;;;;2.88;2.67;;;25.40;49.80;;;;;;4898792;28;45611;-64
2022/06/05 05:07:50;;;;;;;2.40;2.20;;;25.30;49.80;;;;;;4913940;28;45368;-62
2022/06/05 05:10:15;;;;;;;2.88;2.67;;;25.30;49.80;;;;;;4912531;28;45292;-61
2022/06/05 05:12:41;;;;;;;2.45;2.28;;;25.30;49.80;;;;;;4908493;28;44807;-62
2022/06/05 05:15:08;;;;;;;2.35;2.22;;;25.40;49.90;;;;;;4906482;28;45387;-62
2022/06/05 05:17:34;;;;;;;2.70;2.50;;;25.40;49.80;;;;;;4903465;28;45250;-62
2022/06/05 05:20:00;;;;;;;2.70;2.50;;;25.30;49.80;;;;;;4897282;28;45309;-62
2022/06/05 05:22:26;;;;;;;2.50;2.30;;;25.30;49.80;;;;;;4897930;28;45047;-62
2022/06/05 05:24:51;;;;;;;2.38;2.17;;;25.40;49.80;;;;;;4929295;28;46072;-61
2022/06/05 05:27:18;;;;;;;2.70;2.50;;;25.40;49.80;;;;;;4926347;28;45533;-62
2022/06/05 05:29:44;;;;;;;2.95;2.75;;;25.40;49.70;;;;;;4912974;28;46399;-63
2022/06/05 05:32:10;;;;;;;2.53;2.33;;;25.40;49.60;;;;;;4912900;28;45938;-63
2022/06/05 05:34:36;;;;;;;4.40;2.42;;;25.50;49.50;;;;;;4915423;28;45587;-62
2022/06/05 05:37:02;;;;;;;2.88;2.67;;;25.50;49.40;;;;;;4913744;28;45149;-62
2022/06/05 05:42:12;;;;;;;2.67;2.47;;;25.60;49.20;;;;;;4923418;28;45076;-62
2022/06/05 05:44:46;;;;;;;2.38;2.22;;;25.60;49.20;;;;;;4896543;28;45746;-63
2022/06/05 05:47:17;;;;;;;2.88;2.63;;;25.60;49.10;;;;;;4895717;28;45789;-63
2022/06/05 05:49:42;;;;;;;2.80;2.60;;;25.60;49.20;;;;;;4914412;28;45259;-62
2022/06/05 05:52:08;;;;;;;2.95;2.65;;;25.60;49.30;;;;;;4927412;28;45087;-62
2022/06/05 05:54:34;;;;;;;2.90;2.70;;;25.60;49.20;;;;;;4897452;28;45787;-63
2022/06/05 05:57:00;;;;;;;2.60;2.40;;;25.60;49.10;;;;;;4895133;28;45636;-61
2022/06/05 05:59:26;;;;;;;3.40;2.63;;;25.60;49.10;;;;;;4910124;28;45266;-62
2022/06/05 06:01:51;;;;;;;2.75;2.55;;;25.70;49.20;;;;;;4894274;28;46868;-61
2022/06/05 06:04:17;;;;;;;3.05;2.85;;;25.70;49.20;;;;;;4897019;28;45554;-62
2022/06/05 06:06:44;;;;;;;3.00;2.65;;;25.70;49.20;;;;;;4914395;28;45688;-61
2022/06/05 06:09:10;;;;;;;2.55;2.35;;;25.60;49.10;;;;;;4911111;28;46238;-62
2022/06/05 06:11:36;;;;;;;2.78;2.58;;;25.70;49.80;;;;;;4880306;28;45010;-62
2022/06/05 06:14:01;;;;;;;2.63;2.42;;;25.70;49.10;;;;;;4897597;28;45837;-62
2022/06/05 06:16:27;;;;;;;3.75;2.88;;;25.70;49.10;;;;;;4894696;28;45562;-63
2022/06/05 06:18:56;;;;;;;2.53;2.33;;;25.70;49.10;;;;;;4914821;28;46166;-62
2022/06/05 06:21:22;;;;;;;2.72;2.53;;;25.80;49.00;;;;;;4910234;28;45653;-62
2022/06/05 06:23:47;;;;;;;2.63;2.42;;;25.70;49.00;;;;;;4880225;28;45619;-62
2022/06/05 06:26:13;;;;;;;2.90;2.65;;;25.70;49.00;;;;;;4896220;28;45336;-62
2022/06/05 06:28:39;;;;;;;2.85;2.65;;;25.80;49.00;;;;;;4894859;28;46763;-61
2022/06/05 06:31:09;;;;;;;3.03;2.83;;;25.80;49.00;;;;;;4894730;28;45635;-62
2022/06/05 06:33:35;;;;;;;2.65;2.45;;;25.80;48.90;;;;;;4912498;28;45516;-62
2022/06/05 06:36:04;;;;;;;3.10;2.80;;;25.80;48.90;;;;;;4915319;28;45816;-61
2022/06/05 06:38:30;;;;;;;2.72;2.53;;;25.80;48.90;;;;;;4895177;28;45338;-63
2022/06/05 06:41:05;;;;;;;2.55;2.35;;;25.80;49.00;;;;;;4894488;28;45598;-63
2022/06/05 06:43:30;;;;;;;2.78;2.42;;;25.80;48.90;;;;;;4910892;28;45610;-62
2022/06/05 06:45:56;;;;;;;2.30;2.10;;;25.80;49.00;;;;;;4913452;28;45220;-62
2022/06/05 06:48:21;;;;;;;2.65;2.45;;;25.80;49.00;;;;;;4905453;28;46280;-62
2022/06/05 06:50:47;;;;;;;2.90;2.50;;;25.90;49.00;;;;;;4892607;28;45650;-62
2022/06/05 06:53:13;;;;;;;2.40;2.20;;;25.80;48.90;;;;;;4891833;28;46343;-62
2022/06/05 06:55:38;;;;;;;3.10;2.20;;;25.90;49.00;;;;;;4912654;28;45481;-62
2022/06/05 06:58:04;;;;;;;4.25;2.38;;;25.90;48.90;;;;;;4913479;28;47400;-62
2022/06/05 07:00:29;;;;;;;3.33;2.58;;;25.90;48.90;;;;;;4910578;28;44766;-60
2022/06/05 07:02:55;;;;;;;3.00;2.80;;;25.90;48.90;;;;;;4908058;28;46317;-62
2022/06/05 07:05:21;;;;;;;2.78;2.58;;;25.90;49.00;;;;;;4893164;28;45490;-61
2022/06/05 07:07:46;;;;;;;2.80;2.60;;;25.90;48.90;;;;;;4896693;28;45303;-62
2022/06/05 07:10:12;;;;;;;2.88;2.35;;;25.90;49.00;;;;;;4895768;28;44750;-62
2022/06/05 07:12:38;;;;;;;2.95;2.50;;;25.90;49.00;;;;;;4893686;28;45667;-62
2022/06/05 07:15:04;;;;;;;2.90;2.70;;;25.90;49.00;;;;;;4911049;28;45540;-62
2022/06/05 07:17:30;;;;;;;2.65;2.45;;;25.90;48.90;;;;;;4897333;28;45137;-61
2022/06/05 07:19:55;;;;;;;2.85;2.65;;;25.90;49.00;;;;;;4877221;28;45061;-62
2022/06/05 07:22:21;;;;;;;2.60;2.40;;;25.90;48.90;;;;;;4910109;28;45764;-62
2022/06/05 07:24:47;;;;;;;2.45;2.33;;;25.90;48.90;;;;;;4911105;28;45595;-62
2022/06/05 07:27:12;;;;;;;2.60;2.40;;;25.90;48.90;;;;;;4912992;28;45482;-61
2022/06/05 07:29:38;;;;;;;2.55;2.35;;;25.90;49.00;;;;;;4876004;28;45318;-62
2022/06/05 07:32:04;;;;;;;2.60;2.40;;;25.90;48.90;;;;;;4910996;28;45650;-60
2022/06/05 07:34:29;;;;;;;3.10;2.85;;;25.90;48.90;;;;;;4924705;28;45980;-62
2022/06/05 07:36:55;;;;;;;2.58;2.38;;;25.90;48.90;;;;;;4913696;28;45961;-62
2022/06/05 07:39:20;;;;;;;2.15;2.05;;;25.90;48.90;;;;;;4910435;28;45539;-60
2022/06/05 07:41:46;;;;;;;2.60;2.40;;;25.90;48.90;;;;;;4912179;28;46266;-60
2022/06/05 07:44:11;;;;;;;2.40;2.20;;;25.90;48.90;;;;;;4912728;28;45256;-62
2022/06/05 07:46:37;;;;;;;3.17;2.40;;;25.90;48.90;;;;;;4911602;28;46241;-62
2022/06/05 07:49:03;;;;;;;2.80;2.60;;;25.90;48.90;;;;;;4900609;28;45375;-62
2022/06/05 07:54:28;;;;;;;2.38;2.17;;;25.90;48.90;;;;;;4919531;28;45574;-62
2022/06/05 07:56:59;;;;;;;2.33;2.15;;;26.00;48.90;;;;;;4917842;28;46259;-62
2022/06/05 07:59:25;;;;;;;2.97;2.72;;;25.90;48.90;;;;;;4891378;28;45723;-61
2022/06/05 08:01:51;;;;;;;2.45;2.28;;;25.90;48.80;;;;;;4913593;28;45649;-61
2022/06/05 08:04:17;;;;;;;2.72;2.53;;;25.90;48.90;;;;;;4900228;28;45787;-63
2022/06/05 08:06:42;;;;;;;2.60;2.40;;;25.90;48.90;;;;;;4901732;28;45395;-62
2022/06/05 08:09:08;;;;;;;2.70;2.50;;;25.90;48.90;;;;;;4898429;28;45035;-60
2022/06/05 08:11:34;;;;;;;2.38;2.17;;;25.90;48.90;;;;;;4920120;28;45822;-61
2022/06/05 08:14:00;;;;;;;3.08;2.88;;;25.90;48.90;;;;;;4894187;28;45514;-60
2022/06/05 08:16:25;;;;;;;2.70;2.50;;;25.90;48.90;;;;;;4879326;28;45403;-63
2022/06/05 08:18:52;;;;;;;2.70;2.50;;;26.00;49.00;;;;;;4916133;28;45303;-62
2022/06/05 08:21:21;;;;;;;2.45;2.25;;;26.00;48.90;;;;;;4890765;28;46323;-63
2022/06/05 08:23:47;;;;;;;2.30;2.17;;;25.90;48.80;;;;;;4917961;28;44886;-62
2022/06/05 08:26:13;;;;;;;2.70;2.50;;;25.90;48.80;;;;;;4901032;28;45490;-61
2022/06/05 08:28:39;;;;;;;2.60;2.40;;;26.00;48.90;;;;;;4903178;28;45354;-61
2022/06/05 08:31:04;;;;;;;2.30;2.20;;;26.00;48.90;;;;;;4892223;28;45750;-62
2022/06/05 08:33:30;;;;;;;2.83;2.35;;;25.90;48.80;;;;;;4913576;28;45414;-62
2022/06/05 08:35:55;;;;;;;2.55;2.35;;;26.00;48.90;;;;;;4885768;28;45866;-61
2022/06/05 08:41:32;;;;;;;2.60;2.40;;;25.90;48.80;;;;;;4895197;28;45649;-62
2022/06/05 08:44:31;;;;;;;2.25;2.15;;;26.00;48.80;;;;;;4911005;28;47394;-62
2022/06/05 08:47:01;;;;;;;2.53;2.33;;;26.00;48.80;;;;;;4880096;28;46024;-62
2022/06/05 08:49:43;;;;;;;2.08;1.98;;;26.00;48.90;;;;;;4890171;28;45629;-62
2022/06/05 08:52:27;;;;;;;2.40;2.22;;;25.90;48.80;;;;;;4917733;28;46010;-62
2022/06/05 08:55:05;;;;;;;2.60;2.40;;;25.90;48.90;;;;;;4890952;28;45304;-62
2022/06/05 08:57:52;;;;;;;2.90;2.70;;;25.90;48.90;;;;;;4875879;28;45763;-63
2022/06/05 09:00:19;;;;;;;2.42;2.22;;;25.90;48.80;;;;;;4869527;28;45585;-61
2022/06/05 09:02:52;;;;;;;2.72;2.53;;;25.90;48.90;;;;;;4895653;28;45555;-63
2022/06/05 09:05:19;;;;;;;3.65;2.38;;;25.90;48.90;;;;;;4899372;28;45256;-62
2022/06/05 09:07:51;;;;;;;2.33;2.22;;;25.90;48.90;;;;;;4889090;28;46067;-62
2022/06/05 09:10:24;;;;;;;2.58;2.38;;;25.90;48.90;;;;;;4874189;28;45339;-62
2022/06/05 09:13:18;;;;;;;2.55;2.35;;;25.90;48.90;;;;;;4885919;28;45395;-62
2022/06/05 09:15:48;;;;;;;2.60;2.40;;;25.90;48.80;;;;;;4872198;28;45512;-63
2022/06/05 09:18:19;;;;;;;2.67;2.47;;;25.90;49.00;;;;;;4870496;28;45522;-63
2022/06/05 09:20:53;;;;;;;2.50;2.30;;;25.90;48.90;;;;;;4899914;28;45309;-62
2022/06/05 09:23:26;;;;;;;2.28;2.05;;;25.90;49.00;;;;;;4899355;28;45372;-60
2022/06/05 09:25:54;;;;;;;2.60;2.40;;;25.90;49.00;;;;;;4914900;28;45494;-62
2022/06/05 09:28:35;;;;;;;2.80;2.60;;;25.90;49.20;;;;;;4878085;28;45280;-63
2022/06/05 09:31:23;;;;;;;2.50;2.30;;;25.90;49.30;;;;;;4890684;28;44956;-61
2022/06/05 09:33:48;;;;;;;3.20;2.90;;;25.90;49.30;;;;;;4877540;28;45832;-62
2022/06/05 09:36:16;;;;;;;2.85;2.65;;;25.90;49.30;;;;;;4900481;28;45862;-62
2022/06/05 09:38:43;;;;;;;2.65;2.45;;;25.80;49.20;;;;;;4894509;28;46214;-63
2022/06/05 09:41:21;;;;;;;2.80;2.60;;;25.90;49.30;;;;;;4901599;28;45850;-63
2022/06/05 09:44:12;;;;;;;2.72;2.53;;;25.90;49.20;;;;;;4906993;28;45158;-60
2022/06/05 09:46:54;;;;;;;3.88;2.40;;;25.90;49.10;;;;;;4892620;28;45797;-62
2022/06/05 09:49:29;;;;;;;2.72;2.53;;;25.90;49.20;;;;;;4904000;28;46673;-62
2022/06/05 09:51:55;;;;;;;2.30;2.13;;;25.90;49.10;;;;;;4881885;28;45091;-62
2022/06/05 09:54:31;;;;;;;3.13;2.38;;;25.80;49.10;;;;;;4905759;28;45615;-62
2022/06/05 10:00:08;;;;;;;2.83;2.63;;;25.80;49.10;;;;;;4921204;28;47008;-62
2022/06/05 10:02:33;;;;;;;2.92;2.67;;;25.80;49.10;;;;;;4915852;28;45305;-62
2022/06/05 10:04:59;;;;;;;2.45;2.25;;;25.90;49.20;;;;;;4891839;28;47797;-61
2022/06/05 10:07:33;;;;;;;2.45;2.25;;;25.80;49.10;;;;;;4905401;28;45836;-62
2022/06/05 10:10:03;;;;;;;2.40;2.20;;;25.80;49.10;;;;;;4879851;28;45576;-61
2022/06/05 10:12:43;;;;;;;2.58;2.38;;;25.80;49.10;;;;;;4904871;28;45538;-62
2022/06/05 10:15:26;;;;;;;2.63;2.42;;;25.90;49.10;;;;;;4910535;28;45506;-62
2022/06/05 10:17:58;;;;;;;2.55;2.35;;;25.80;49.10;;;;;;4928787;28;45084;-62
2022/06/05 10:20:26;;;;;;;2.67;2.47;;;25.80;49.10;;;;;;4937496;28;45507;-60
2022/06/05 10:23:07;;;;;;;2.72;2.53;;;25.80;49.10;;;;;;4917909;28;44894;-62
2022/06/05 10:25:36;;;;;;;2.58;2.38;;;25.80;49.10;;;;;;4930689;28;45381;-62
2022/06/05 10:28:14;;;;;;;3.03;2.80;;;25.80;49.20;;;;;;4891963;28;45504;-62
2022/06/05 10:30:42;;;;;;;6.38;2.72;;;25.80;49.10;;;;;;4914893;28;45989;-62
2022/06/05 10:33:20;;;;;;;3.63;2.75;;;25.90;49.30;;;;;;4924820;28;44843;-62
2022/06/05 10:36:04;;;;;;;4.18;2.80;;;25.90;49.20;;;;;;4918574;28;45327;-61
2022/06/05 10:38:42;;;;;;;5.13;2.85;;;25.90;49.10;;;;;;4917745;28;45279;-62
2022/06/05 10:41:31;;;;;;;3.22;2.70;;;25.90;49.30;;;;;;4898618;28;45895;-61
2022/06/05 10:44:08;;;;;;;3.25;3.00;;;25.90;49.30;;;;;;4916849;28;45524;-60
2022/06/05 10:46:34;;;;;;;3.70;3.00;;;25.90;49.50;;;;;;4915460;28;45726;-60
2022/06/05 10:49:24;;;;;;;3.10;2.60;;;25.90;49.40;;;;;;4901160;28;45647;-60
2022/06/05 10:51:58;;;;;;;8.90;3.38;;;26.00;49.60;;;;;;4886085;28;46254;-62
2022/06/05 10:54:30;;;;;;;4.03;2.65;;;26.00;49.50;;;;;;4914530;28;45275;-62
2022/06/05 10:57:12;;;;;;;3.65;3.08;;;26.00;49.50;;;;;;4925625;28;45191;-62
2022/06/05 10:59:56;;;;;;;8.68;3.28;;;26.00;49.90;;;;;;4896001;28;44743;-61
2022/06/05 11:02:41;;;;;;;8.88;3.10;;;26.00;50.00;;;;;;4915007;28;45906;-62
2022/06/05 11:05:38;;;;;;;7.43;3.00;;;26.00;50.00;;;;;;4919847;28;45207;-61
2022/06/05 11:08:09;;;;;;;8.15;3.13;;;25.90;50.10;;;;;;4910035;28;45196;-61
2022/06/05 11:14:12;;;;;;;2.92;2.70;;;25.90;50.30;;;;;;4917685;28;46078;-62
2022/06/05 11:16:56;;;;;;;6.05;3.03;;;25.90;50.60;;;;;;4889107;28;45141;-62
2022/06/05 11:19:41;;;;;;;7.43;2.83;;;25.90;50.70;;;;;;4902135;28;45371;-59
2022/06/05 11:22:14;;;;;;;3.90;3.13;;;25.90;50.40;;;;;;4916157;28;45180;-62
2022/06/05 11:24:43;;;;;;;13.23;4.40;;;26.00;51.00;;;;;;4872267;28;47009;-61
2022/06/05 11:27:12;;;;;;;6.68;3.30;;;26.00;51.00;;;;;;4899969;28;45651;-60
2022/06/05 11:30:15;;;;;;;7.47;3.30;;;26.00;51.00;;;;;;4882669;28;44938;-62
2022/06/05 11:32:52;;;;;;;7.63;3.28;;;26.00;51.60;;;;;;4894870;28;44834;-61
2022/06/05 11:35:53;;;;;;;7.55;3.40;;;26.00;51.40;;;;;;4926968;28;47894;-61
2022/06/05 11:38:38;;;;;;;7.93;3.13;;;26.00;51.90;;;;;;4917362;28;45292;-60
2022/06/05 11:41:10;;;;;;;6.63;3.15;;;26.00;51.50;;;;;;4929350;28;44934;-61
2022/06/05 11:43:37;;;;;;;6.53;3.45;;;26.00;51.40;;;;;;4900405;28;46457;-62
2022/06/05 11:46:21;;;;;;;7.97;3.67;;;26.00;51.60;;;;;;4912014;28;45433;-61
2022/06/05 11:48:51;;;;;;;10.18;3.50;;;26.00;51.80;;;;;;4917940;28;44943;-60
2022/06/05 11:51:30;;;;;;;8.75;3.70;;;26.10;52.00;;;;;;4899215;28;45342;-62
2022/06/05 11:54:07;;;;;;;6.00;3.22;;;26.10;52.40;;;;;;4900742;28;45710;-62
2022/06/05 11:57:14;;;;;;;8.63;3.40;;;26.10;52.20;;;;;;4923575;28;46082;-62
2022/06/05 11:59:51;;;;;;;7.53;3.97;;;26.10;52.70;;;;;;4899451;28;45264;-62
2022/06/05 12:02:48;;;;;;;11.23;3.88;;;26.10;52.30;;;;;;4930532;28;46826;-62
2022/06/05 12:05:41;;;;;;;9.88;4.07;;;26.10;52.70;;;;;;4904446;28;44990;-62
2022/06/05 12:08:12;;;;;;;13.30;4.35;;;26.10;52.90;;;;;;4916911;28;46544;-60
2022/06/05 12:10:48;;;;;;;7.65;3.65;;;26.20;52.40;;;;;;4916985;28;45250;-61
2022/06/05 12:13:39;;;;;;;8.50;3.55;;;26.20;52.50;;;;;;4886337;28;45321;-62
2022/06/05 12:16:31;;;;;;;9.93;4.43;;;26.20;52.90;;;;;;4903387;28;45218;-62
2022/06/05 12:19:07;;;;;;;13.98;4.25;;;26.20;53.00;;;;;;4910768;28;47795;-60
2022/06/05 12:22:14;;;;;;;12.75;4.18;;;26.20;52.70;;;;;;4912048;28;44808;-62
2022/06/05 12:25:06;;;;;;;8.75;4.32;;;26.20;53.50;;;;;;4887276;28;45729;-62
2022/06/05 12:28:01;;;;;;;8.50;3.90;;;26.20;53.50;;;;;;4896889;28;45582;-61
2022/06/05 12:30:36;;;;;;;10.35;4.18;;;26.20;54.30;;;;;;4898299;28;45063;-60
2022/06/05 12:33:17;;;;;;;13.75;3.90;;;26.20;53.30;;;;;;4918486;28;45229;-61
2022/06/05 12:35:45;;;;;;;13.32;4.85;;;26.20;54.00;;;;;;4899754;28;44760;-59
2022/06/05 12:38:48;;;;;;;10.50;4.68;;;26.20;53.50;;;;;;4928398;28;45280;-61
2022/06/05 12:41:15;;;;;;;;;;;26.30;54.30;;;;;;4905218;28;45674;-62
2022/06/05 12:43:54;;;;;;;8.07;3.92;;;26.20;54.60;;;;;;4917272;28;45373;-61
2022/06/05 12:46:30;;;;;;;8.65;4.50;;;26.20;54.30;;;;;;4931052;28;45561;-61
2022/06/05 12:49:23;;;;;;;11.50;4.30;;;26.30;54.60;;;;;;4903095;28;45103;-62
2022/06/05 12:52:13;;;;;;;5.65;4.15;;;26.30;54.90;;;;;;4896158;28;45337;-60
2022/06/05 12:55:00;;;;;;;9.02;3.90;;;26.30;54.90;;;;;;4918903;28;45472;-62
2022/06/05 12:57:29;;;;;;;12.30;5.22;;;26.30;54.40;;;;;;4903317;28;45217;-61
2022/06/05 13:00:13;;;;;;;8.95;4.35;;;26.30;54.30;;;;;;4901943;28;44759;-60
2022/06/05 13:02:40;;;;;;;;;;;26.40;54.80;;;;;;4915218;28;46644;-60
2022/06/05 13:05:35;;;;;;;18.20;4.60;;;26.30;55.20;;;;;;4911277;28;45130;-61
2022/06/05 13:08:11;;;;;;;25.33;4.90;;;26.40;54.50;;;;;;4899601;28;45449;-61
2022/06/05 13:10:41;;;;;;;22.35;5.05;;;26.50;54.50;;;;;;4898871;28;45540;-60
2022/06/05 13:13:46;;;;;;;12.07;4.40;;;26.50;54.20;;;;;;4887050;28;46331;-60
2022/06/05 13:16:36;;;;;;;22.08;4.38;;;26.50;54.70;;;;;;4937076;28;45341;-62
2022/06/05 13:19:27;;;;;;;7.95;4.50;;;26.50;54.80;;;;;;4879215;28;44783;-61
2022/06/05 13:21:55;;;;;;;12.25;4.10;;;26.40;54.70;;;;;;4912097;28;45581;-61
2022/06/05 13:24:46;;;;;;;10.55;4.50;;;26.40;54.30;;;;;;4930668;28;46012;-62
2022/06/05 13:27:30;;;;;;;8.32;4.13;;;26.40;54.50;;;;;;4917796;28;45252;-61
2022/06/05 13:30:01;;;;;;;7.80;4.30;;;26.40;54.80;;;;;;4911299;28;45408;-60
2022/06/05 13:32:48;;;;;;;5.72;3.40;;;26.40;54.60;;;;;;4931275;28;44777;-61
2022/06/05 13:35:31;;;;;;;4.95;3.65;;;26.40;55.10;;;;;;4903716;28;46070;-62
2022/06/05 13:37:57;;;;;;;;;;;26.40;55.20;;;;;;4920374;28;45232;-61
2022/06/05 13:40:31;;;;;;;5.45;3.78;;;26.40;55.20;;;;;;4909765;28;45826;-62
2022/06/05 13:42:57;;;;;;;8.48;4.03;;;26.40;55.00;;;;;;4913734;28;45605;-62
2022/06/05 13:45:31;;;;;;;4.28;3.65;;;26.40;54.90;;;;;;4894545;28;46023;-62
2022/06/05 13:48:27;;;;;;;7.65;4.18;;;26.40;55.40;;;;;;4925207;28;45704;-62
2022/06/05 13:51:15;;;;;;;10.05;4.40;;;26.40;56.10;;;;;;4909322;28;45515;-60
2022/06/05 13:53:42;;;;;;;5.40;4.22;;;26.40;55.40;;;;;;4913942;28;46439;-61
2022/06/05 13:56:20;;;;;;;4.68;4.20;;;26.40;55.40;;;;;;4897316;28;45442;-62
2022/06/05 13:59:05;;;;;;;7.13;4.43;;;26.40;56.00;;;;;;4924645;28;45026;-62
2022/06/05 14:01:33;;;;;;;4.75;3.47;;;26.40;55.70;;;;;;4924605;28;46359;-61
2022/06/05 14:04:12;;;;;;;5.03;3.08;;;26.40;55.70;;;;;;4905857;28;45163;-62
2022/06/05 14:06:54;;;;;;;3.15;2.88;;;26.40;56.30;;;;;;4909374;28;45549;-62
2022/06/05 14:09:40;;;;;;;3.78;2.47;;;26.30;55.90;;;;;;4910808;28;45739;-61
2022/06/05 14:12:16;;;;;;;2.95;2.25;;;26.40;55.70;;;;;;4910700;28;45900;-60
2022/06/05 14:14:43;;;;;;;2.85;2.00;;;26.30;55.10;;;;;;4911382;28;45635;-61
2022/06/05 14:17:29;;;;;;;3.40;2.20;;;26.30;54.80;;;;;;4909031;28;47562;-62
2022/06/05 14:20:07;;;;;;;2.47;1.75;;;26.30;54.50;;;;;;4923330;28;45958;-61
2022/06/05 14:22:34;;;;;;;4.10;1.48;;;26.30;54.20;;;;;;4900845;28;45452;-62
2022/06/05 14:25:00;;;;;;;3.45;1.80;;;26.30;54.00;;;;;;4894164;28;45806;-61
2022/06/05 14:27:31;;;;;;;2.50;1.10;;;26.30;53.90;;;;;;4937267;28;45467;-62
2022/06/05 14:29:58;;;;;;;5.18;1.20;;;26.20;53.70;;;;;;4895862;28;45343;-61
2022/06/05 14:32:28;;;;;;;2.10;1.20;;;26.20;53.80;;;;;;4897230;28;45393;-61
2022/06/05 14:35:28;;;;;;;3.10;1.52;;;26.20;53.80;;;;;;4893889;28;45478;-60
2022/06/05 14:37:56;;;;;;;2.60;1.20;;;26.20;53.40;;;;;;4912474;28;46296;-62
2022/06/05 14:40:25;;;;;;;5.07;1.42;;;26.10;53.40;;;;;;4911700;28;44737;-62
2022/06/05 14:43:04;;;;;;;3.10;1.08;;;26.10;53.50;;;;;;4894313;28;45543;-61
2022/06/05 14:45:42;;;;;;;1.75;1.30;;;26.10;53.50;;;;;;4894631;28;45504;-60
2022/06/05 14:48:14;;;;;;;3.40;1.27;;;26.10;53.60;;;;;;4910224;28;46254;-65
2022/06/05 14:50:56;;;;;;;2.35;1.20;;;26.10;53.60;;;;;;4912104;28;45545;-61
2022/06/05 14:53:45;;;;;;;2.55;1.10;;;26.10;53.70;;;;;;4892876;28;45792;-60
2022/06/05 14:59:45;;;;;;;3.42;1.10;;;26.00;54.10;;;;;;4911472;28;46088;-61
2022/06/05 15:02:32;;;;;;;4.50;1.60;;;26.00;54.70;;;;;;4918827;28;45345;-61
2022/06/05 15:05:34;;;;;;;4.05;1.50;;;26.00;54.60;;;;;;4908989;28;45541;-61
2022/06/05 15:08:09;;;;;;;3.03;1.13;;;26.10;54.60;;;;;;4897567;28;45514;-62
2022/06/05 15:10:54;;;;;;;4.13;1.38;;;26.00;54.70;;;;;;4908517;28;45371;-61
2022/06/05 15:13:31;;;;;;;2.67;1.30;;;26.00;55.00;;;;;;4890569;28;45365;-59
2022/06/05 15:16:26;;;;;;;1.80;1.40;;;26.10;55.30;;;;;;4909564;28;45047;-60
2022/06/05 15:18:52;;;;;;;2.40;1.17;;;26.00;55.30;;;;;;4908328;28;45365;-62
2022/06/05 15:21:47;;;;;;;2.20;1.40;;;26.00;55.20;;;;;;4888583;28;47255;-61
2022/06/05 15:24:30;;;;;;;1.63;1.13;;;26.00;55.40;;;;;;4891733;28;44827;-62
2022/06/05 15:27:26;;;;;;;2.67;1.60;;;26.00;55.90;;;;;;4892655;28;45031;-61
2022/06/05 15:29:59;;;;;;;6.05;1.40;;;26.00;56.70;;;;;;4892094;28;44738;-61
2022/06/05 15:32:46;;;;;;;3.58;1.58;;;26.00;55.80;;;;;;4891807;28;45753;-62
2022/06/05 15:35:27;;;;;;;3.90;1.27;;;26.00;56.20;;;;;;4920145;28;45464;-62
2022/06/05 15:38:18;;;;;;;2.05;1.73;;;26.00;56.70;;;;;;4922275;28;45807;-60
2022/06/05 15:41:04;;;;;;;3.20;1.75;;;26.00;56.30;;;;;;4907765;28;45777;-61
2022/06/05 15:43:30;;;;;;;1.63;1.48;;;26.00;57.10;;;;;;4908778;28;46179;-60
2022/06/05 15:46:08;;;;;;;3.40;1.77;;;25.90;56.40;;;;;;4891566;28;46814;-62
2022/06/05 15:48:45;;;;;;;2.35;1.45;;;25.90;57.20;;;;;;4897018;28;45919;-61
2022/06/05 15:51:23;;;;;;;3.47;1.75;;;25.90;56.80;;;;;;4906356;28;45350;-60
2022/06/05 15:54:10;;;;;;;1.90;1.77;;;25.90;57.80;;;;;;4923917;28;46392;-61
2022/06/05 15:58:17;;;;;;;4.70;1.67;;;25.90;57.20;;;;;;4918745;28;45126;-61
2022/06/05 16:02:51;;;;;;;3.17;1.70;;;25.80;57.70;;;;;;5100210;27;45297;-60
2022/06/05 16:05:26;;;;;;;4.03;1.50;;;25.80;57.30;;;;;;5065938;27;45235;-61
2022/06/05 16:07:55;;;;;;;3.88;1.92;;;25.80;57.60;;;;;;5061620;27;45035;-64
2022/06/05 16:10:26;;;;;;;3.53;1.95;;;25.80;57.30;;;;;;5040018;27;45450;-62
2022/06/05 16:12:51;;;;;;;3.50;1.70;;;25.90;57.30;;;;;;5066066;27;47105;-62
2022/06/05 16:15:40;;;;;;;2.88;1.88;;;25.90;57.10;;;;;;5062948;27;45275;-62
2022/06/05 16:18:41;;;;;;;3.47;2.10;;;25.90;57.60;;;;;;5075790;27;45996;-63
2022/06/05 16:21:32;;;;;;;1.98;1.67;;;25.90;57.50;;;;;;5083301;27;45207;-61
2022/06/05 16:24:06;;;;;;;2.60;1.80;;;25.90;57.20;;;;;;5083477;27;45120;-62
2022/06/05 16:26:40;;;;;;;4.45;1.90;;;25.90;57.10;;;;;;5079268;27;45212;-62
2022/06/05 16:29:09;;;;;;;2.67;1.50;;;25.90;57.00;;;;;;5085221;27;45357;-61
2022/06/05 16:31:38;;;;;;;4.10;1.63;;;25.90;56.80;;;;;;5071199;27;45299;-63
2022/06/05 16:34:09;;;;;;;2.40;1.90;;;25.90;56.70;;;;;;5087913;27;45236;-62
2022/06/05 16:39:30;;;;;;;3.53;1.88;;;25.90;56.60;;;;;;5066696;27;45443;-63
2022/06/05 16:41:57;;;;;;;2.60;1.58;;;25.90;56.40;;;;;;5086725;27;45476;-62
2022/06/05 16:44:44;;;;;;;3.40;1.50;;;25.90;56.30;;;;;;5064888;27;46043;-62
2022/06/05 16:48:03;;;;;;;1.38;1.27;;;25.90;56.20;;;;;;5079679;27;45640;-62